Time;durP1;ratioP1;P1;durP2;ratioP2;P2;SDS_P1;SDS_P2;PMS_P1;PMS_P2;Temp;Humidity;BMP_temperature;BMP_pressure;BME280_temperature;BME280_humidity;BME280_pressure;Samples;Min_cycle;Max_cycle;Signal;HPM_P1;HPM_P2
2023/03/13 00:00:15;;;;;;;2.70;0.90;;;;;;;;;;104354;1266;60261;-69
2023/03/13 00:02:49;;;;;;;0.90;0.70;;;;;;;;;;104263;1276;60297;-65
2023/03/13 00:05:17;;;;;;;1.20;0.80;;;;;;;;;;104066;1270;355478;-68
2023/03/13 00:07:48;;;;;;;1.30;0.80;;;;;;;;;;104240;1279;60581;-68
2023/03/13 00:10:18;;;;;;;2.40;1.10;;;;;;;;;;104218;1263;60267;-66
2023/03/13 00:12:47;;;;;;;1.80;0.90;;;;;;;;;;104198;1259;60360;-67
2023/03/13 00:15:16;;;;;;;1.50;0.70;;;;;;;;;;104261;1261;60328;-66
2023/03/13 00:17:45;;;;;;;1.00;0.80;;;;;;;;;;104262;1264;60920;-68
2023/03/13 00:20:16;;;;;;;1.10;0.70;;;;;;;;;;104293;1261;60888;-68
2023/03/13 00:22:51;;;;;;;1.00;1.00;;;;;;;;;;104200;1272;60872;-65
2023/03/13 00:25:20;;;;;;;1.60;1.10;;;;;;;;;;104228;1274;60888;-65
2023/03/13 00:27:49;;;;;;;1.80;1.00;;;;;;;;;;104177;1264;60786;-68
2023/03/13 00:30:21;;;;;;;2.50;0.70;;;;;;;;;;104165;1261;60887;-67
2023/03/13 00:32:55;;;;;;;1.00;0.50;;;;;;;;;;104211;1261;60893;-67
2023/03/13 00:35:24;;;;;;;1.20;0.70;;;;;;;;;;104198;1266;60731;-70
2023/03/13 00:37:53;;;;;;;1.00;0.80;;;;;;;;;;104047;1264;60987;-67
2023/03/13 00:40:26;;;;;;;1.10;0.60;;;;;;;;;;104471;1263;60815;-66
2023/03/13 00:42:55;;;;;;;1.60;0.70;;;;;;;;;;104524;1258;60877;-69
2023/03/13 00:45:23;;;;;;;1.40;0.50;;;;;;;;;;104698;1257;61167;-70
2023/03/13 00:47:51;;;;;;;1.30;0.80;;;;;;;;;;104627;1257;60884;-69
2023/03/13 00:50:20;;;;;;;0.50;0.50;;;;;;;;;;104624;1258;60852;-68
2023/03/13 00:52:49;;;;;;;1.60;0.70;;;;;;;;;;104647;1257;60869;-66
2023/03/13 00:55:17;;;;;;;0.90;0.70;;;;;;;;;;105347;1248;60871;-69
2023/03/13 00:57:46;;;;;;;1.10;0.50;;;;;;;;;;105275;1257;60809;-69
2023/03/13 01:00:15;;;;;;;1.50;0.60;;;;;;;;;;105039;1254;60782;-68
2023/03/13 01:02:44;;;;;;;1.80;0.90;;;;;;;;;;105337;1252;61298;-67
2023/03/13 01:05:13;;;;;;;2.00;0.60;;;;;;;;;;105406;1262;60792;-65
2023/03/13 01:07:42;;;;;;;2.40;0.90;;;;;;;;;;105299;1253;60890;-70
2023/03/13 01:10:15;;;;;;;2.50;0.60;;;;;;;;;;105241;1258;61329;-70
2023/03/13 01:12:43;;;;;;;0.90;0.60;;;;;;;;;;105169;1254;60872;-69
2023/03/13 01:15:12;;;;;;;0.80;0.70;;;;;;;;;;105328;1250;60828;-67
2023/03/13 01:17:48;;;;;;;1.20;0.70;;;;;;;;;;105348;1264;60869;-68
2023/03/13 01:20:19;;;;;;;0.90;0.70;;;;;;;;;;105159;1250;60834;-70
2023/03/13 01:22:47;;;;;;;0.60;0.50;;;;;;;;;;104855;1257;60777;-70
2023/03/13 01:25:23;;;;;;;1.10;0.60;;;;;;;;;;105243;1252;60927;-67
2023/03/13 01:27:52;;;;;;;0.50;0.50;;;;;;;;;;105292;1254;60846;-69
2023/03/13 01:30:22;;;;;;;0.80;0.70;;;;;;;;;;104996;1247;60960;-68
2023/03/13 01:32:53;;;;;;;0.80;0.70;;;;;;;;;;105247;1263;60619;-67
2023/03/13 01:35:22;;;;;;;2.10;0.80;;;;;;;;;;105191;1253;60869;-66
2023/03/13 01:37:50;;;;;;;0.70;0.50;;;;;;;;;;105392;1254;60782;-67
2023/03/13 01:40:18;;;;;;;1.60;0.80;;;;;;;;;;105385;1257;60809;-67
2023/03/13 01:42:57;;;;;;;0.50;0.50;;;;;;;;;;105092;1249;60899;-66
2023/03/13 01:45:45;;;;;;;2.80;0.80;;;;;;;;;;105217;1254;60814;-67
2023/03/13 01:48:17;;;;;;;0.80;0.60;;;;;;;;;;105344;1253;60959;-67
2023/03/13 01:50:51;;;;;;;1.00;0.70;;;;;;;;;;105263;1262;60850;-66
2023/03/13 01:53:26;;;;;;;0.80;0.80;;;;;;;;;;105008;1266;60741;-68
2023/03/13 01:56:00;;;;;;;1.00;0.80;;;;;;;;;;104738;1261;60876;-68
2023/03/13 01:58:28;;;;;;;1.20;0.90;;;;;;;;;;104973;1264;60840;-67
2023/03/13 02:00:58;;;;;;;2.50;0.90;;;;;;;;;;104689;1251;60961;-67
2023/03/13 02:03:35;;;;;;;1.20;0.80;;;;;;;;;;104729;1253;60843;-67
2023/03/13 02:06:04;;;;;;;1.70;0.90;;;;;;;;;;104738;1251;60770;-67
2023/03/13 02:08:35;;;;;;;1.50;1.00;;;;;;;;;;104996;1250;60882;-67
2023/03/13 02:11:24;;;;;;;1.60;0.80;;;;;;;;;;104902;1264;60780;-68
2023/03/13 02:13:53;;;;;;;0.60;0.60;;;;;;;;;;104686;1259;60755;-66
2023/03/13 02:16:22;;;;;;;1.50;0.90;;;;;;;;;;104814;1251;60872;-67
2023/03/13 02:18:50;;;;;;;0.80;0.60;;;;;;;;;;105033;1254;60793;-66
2023/03/13 02:21:27;;;;;;;0.90;0.80;;;;;;;;;;105086;1253;60850;-66
2023/03/13 02:24:18;;;;;;;1.30;0.70;;;;;;;;;;104764;1251;60915;-67
2023/03/13 02:26:46;;;;;;;1.00;0.60;;;;;;;;;;105045;1254;60882;-66
2023/03/13 02:29:19;;;;;;;2.10;0.80;;;;;;;;;;104761;1255;60875;-68
2023/03/13 02:31:47;;;;;;;1.70;1.20;;;;;;;;;;104852;1266;61216;-67
2023/03/13 02:34:18;;;;;;;1.60;0.90;;;;;;;;;;104898;1255;60898;-66
2023/03/13 02:36:47;;;;;;;0.80;0.80;;;;;;;;;;104821;1254;60911;-68
2023/03/13 02:39:16;;;;;;;1.80;0.90;;;;;;;;;;104842;1251;60853;-67
2023/03/13 02:41:45;;;;;;;2.30;1.00;;;;;;;;;;104926;1254;61134;-67
2023/03/13 02:44:14;;;;;;;1.90;1.10;;;;;;;;;;104947;1253;60825;-68
2023/03/13 02:46:43;;;;;;;1.80;0.80;;;;;;;;;;107498;1250;60737;-68
2023/03/13 02:49:31;;;;;;;1.90;1.10;;;;;;;;;;105986;1254;60962;-67
2023/03/13 02:52:09;;;;;;;1.40;1.10;;;;;;;;;;104852;1251;60835;-68
2023/03/13 02:54:38;;;;;;;2.50;1.20;;;;;;;;;;105636;1253;61658;-68
2023/03/13 02:57:06;;;;;;;1.50;1.10;;;;;;;;;;105238;1250;60793;-67
2023/03/13 02:59:35;;;;;;;2.50;1.20;;;;;;;;;;105754;1254;60853;-68
2023/03/13 03:02:04;;;;;;;1.70;1.10;;;;;;;;;;105309;1249;60927;-69
2023/03/13 03:04:32;;;;;;;1.20;1.10;;;;;;;;;;105070;1266;60298;-69
2023/03/13 03:07:01;;;;;;;2.10;1.40;;;;;;;;;;105352;1253;61307;-69
2023/03/13 03:09:31;;;;;;;1.60;1.00;;;;;;;;;;105085;1272;60305;-70
2023/03/13 03:12:08;;;;;;;2.30;1.30;;;;;;;;;;105194;1251;60872;-67
2023/03/13 03:14:37;;;;;;;1.80;1.10;;;;;;;;;;105135;1251;60885;-69
2023/03/13 03:17:06;;;;;;;1.40;1.10;;;;;;;;;;105075;1263;60734;-69
2023/03/13 03:19:36;;;;;;;2.10;1.20;;;;;;;;;;105103;1251;60859;-70
2023/03/13 03:22:05;;;;;;;1.50;1.20;;;;;;;;;;105253;1254;60760;-67
2023/03/13 03:24:33;;;;;;;2.10;1.20;;;;;;;;;;105070;1254;60782;-67
2023/03/13 03:27:04;;;;;;;2.60;1.00;;;;;;;;;;105187;1257;60850;-66
2023/03/13 03:29:37;;;;;;;1.90;1.50;;;;;;;;;;105159;1256;60882;-69
2023/03/13 03:32:05;;;;;;;1.70;1.10;;;;;;;;;;105088;1250;60930;-66
2023/03/13 03:34:34;;;;;;;2.00;1.50;;;;;;;;;;105237;1259;60852;-68
2023/03/13 03:37:07;;;;;;;1.80;1.20;;;;;;;;;;105209;1250;60770;-67
2023/03/13 03:39:36;;;;;;;2.40;1.50;;;;;;;;;;105273;1253;60869;-67
2023/03/13 03:42:05;;;;;;;1.50;1.20;;;;;;;;;;105092;1253;60977;-70
2023/03/13 03:44:33;;;;;;;2.60;1.70;;;;;;;;;;105021;1251;60848;-67
2023/03/13 03:47:03;;;;;;;2.10;1.20;;;;;;;;;;106715;1249;60615;-70
2023/03/13 03:49:35;;;;;;;2.60;1.30;;;;;;;;;;106449;1250;60760;-69
2023/03/13 03:52:04;;;;;;;2.90;1.60;;;;;;;;;;105191;1252;60908;-69
2023/03/13 03:54:36;;;;;;;2.90;1.60;;;;;;;;;;105190;1266;60266;-69
2023/03/13 03:57:04;;;;;;;2.90;1.50;;;;;;;;;;105102;1253;60879;-68
2023/03/13 03:59:33;;;;;;;2.10;1.50;;;;;;;;;;105070;1254;61323;-68
2023/03/13 04:02:04;;;;;;;1.60;1.20;;;;;;;;;;105213;1257;60962;-67
2023/03/13 04:04:33;;;;;;;3.40;1.70;;;;;;;;;;105133;1254;61708;-68
2023/03/13 04:07:10;;;;;;;;;;;;;;;;;;105134;1264;61599;-66
2023/03/13 04:09:40;;;;;;;3.00;1.50;;;;;;;;;;105261;1253;61592;-69
2023/03/13 04:12:16;;;;;;;2.40;1.20;;;;;;;;;;105059;1254;61695;-70
2023/03/13 04:14:47;;;;;;;3.00;1.80;;;;;;;;;;105245;1253;61615;-68
2023/03/13 04:17:16;;;;;;;3.00;2.00;;;;;;;;;;105227;1254;61695;-69
2023/03/13 04:19:46;;;;;;;3.00;1.80;;;;;;;;;;105218;1257;61670;-68
2023/03/13 04:22:14;;;;;;;2.70;1.70;;;;;;;;;;105153;1254;61603;-69
2023/03/13 04:24:49;;;;;;;3.60;1.80;;;;;;;;;;105183;1260;61641;-68
2023/03/13 04:27:19;;;;;;;3.00;1.70;;;;;;;;;;105394;1250;61694;-69
2023/03/13 04:29:48;;;;;;;2.40;1.80;;;;;;;;;;105234;1260;61736;-69
2023/03/13 04:32:59;;;;;;;2.30;1.80;;;;;;;;;;104918;1271;61695;-69
2023/03/13 04:35:52;;;;;;;3.40;2.00;;;;;;;;;;105245;1254;61663;-70
2023/03/13 04:38:52;;;;;;;3.90;1.90;;;;;;;;;;104780;1254;61642;-70
2023/03/13 04:41:41;;;;;;;3.00;2.00;;;;;;;;;;105076;1250;61675;-69
2023/03/13 04:44:19;;;;;;;3.20;2.50;;;;;;;;;;105175;1253;61685;-70
2023/03/13 04:47:04;;;;;;;3.50;2.10;;;;;;;;;;105114;1257;61695;-71
2023/03/13 04:49:47;;;;;;;4.10;2.10;;;;;;;;;;105145;1262;61714;-69
2023/03/13 04:52:23;;;;;;;4.10;2.50;;;;;;;;;;105257;1256;61097;-70
2023/03/13 04:55:07;;;;;;;4.00;2.20;;;;;;;;;;104991;1253;61596;-69
2023/03/13 04:58:02;;;;;;;4.20;2.30;;;;;;;;;;104965;1257;61682;-69
2023/03/13 05:00:42;;;;;;;3.40;2.10;;;;;;;;;;104912;1250;61730;-69
2023/03/13 05:03:48;;;;;;;2.40;1.50;;;;;;;;;;104520;1275;61826;-69
2023/03/13 05:06:29;;;;;;;4.40;2.00;;;;;;;;;;104531;1254;61695;-70
2023/03/13 05:09:18;;;;;;;3.60;2.30;;;;;;;;;;104971;1262;61603;-69
2023/03/13 05:12:06;;;;;;;3.30;2.40;;;;;;;;;;105071;1251;62032;-69
2023/03/13 05:15:06;;;;;;;4.20;2.70;;;;;;;;;;104862;1253;61823;-69
2023/03/13 05:17:54;;;;;;;4.60;2.20;;;;;;;;;;105004;1253;61708;-70
2023/03/13 05:20:31;;;;;;;5.40;2.40;;;;;;;;;;104965;1266;61080;-69
2023/03/13 05:23:20;;;;;;;4.10;2.10;;;;;;;;;;105036;1266;61718;-69
2023/03/13 05:26:24;;;;;;;3.00;2.00;;;;;;;;;;104563;1269;61791;-69
2023/03/13 05:29:11;;;;;;;3.20;2.30;;;;;;;;;;104999;1253;61647;-69
2023/03/13 05:31:58;;;;;;;2.60;1.80;;;;;;;;;;104878;1253;61638;-68
2023/03/13 05:34:49;;;;;;;2.40;1.90;;;;;;;;;;104753;1257;61694;-68
2023/03/13 05:37:36;;;;;;;3.50;2.10;;;;;;;;;;104829;1249;61726;-69
2023/03/13 05:40:27;;;;;;;4.20;2.00;;;;;;;;;;104823;1253;61730;-68
2023/03/13 05:42:55;;;;;;;5.90;3.00;;;;;;;;;;105163;1253;61634;-68
2023/03/13 05:46:02;;;;;;;3.40;2.20;;;;;;;;;;105138;1253;61592;-68
2023/03/13 05:48:46;;;;;;;3.50;2.50;;;;;;;;;;104840;1251;61678;-68
2023/03/13 05:51:47;;;;;;;3.30;2.30;;;;;;;;;;105071;1250;61619;-70
2023/03/13 05:54:29;;;;;;;3.30;1.90;;;;;;;;;;104964;1252;61702;-73
2023/03/13 05:57:22;;;;;;;3.30;1.80;;;;;;;;;;104841;1253;61801;-72
2023/03/13 06:00:09;;;;;;;4.10;2.10;;;;;;;;;;105431;1261;61693;-70
2023/03/13 06:02:43;;;;;;;3.00;1.90;;;;;;;;;;105561;1250;61705;-70
2023/03/13 06:05:17;;;;;;;4.10;1.90;;;;;;;;;;105167;1254;61590;-70
2023/03/13 06:07:48;;;;;;;2.80;1.70;;;;;;;;;;105053;1250;61701;-72
2023/03/13 06:10:16;;;;;;;5.00;2.10;;;;;;;;;;104951;1253;61710;-69
2023/03/13 06:12:50;;;;;;;3.20;1.90;;;;;;;;;;105084;1264;61681;-70
2023/03/13 06:15:21;;;;;;;4.90;2.10;;;;;;;;;;105345;1253;61686;-62
2023/03/13 06:18:00;;;;;;;2.10;1.90;;;;;;;;;;105009;1253;61606;-64
2023/03/13 06:20:29;;;;;;;2.00;1.70;;;;;;;;;;105318;1250;61689;-69
2023/03/13 06:22:59;;;;;;;3.20;1.60;;;;;;;;;;105123;1251;61621;-68
2023/03/13 06:25:27;;;;;;;4.60;1.90;;;;;;;;;;104870;1264;61650;-68
2023/03/13 06:27:55;;;;;;;3.30;2.10;;;;;;;;;;105073;1253;62390;-68
2023/03/13 06:30:23;;;;;;;2.50;2.00;;;;;;;;;;104916;1266;61695;-68
2023/03/13 06:32:52;;;;;;;2.60;2.00;;;;;;;;;;104875;1254;62108;-68
2023/03/13 06:35:20;;;;;;;4.60;2.10;;;;;;;;;;104888;1251;61688;-65
2023/03/13 06:37:48;;;;;;;3.40;2.40;;;;;;;;;;104897;1253;61451;-66
2023/03/13 06:40:19;;;;;;;2.30;1.90;;;;;;;;;;104816;1266;61081;-66
2023/03/13 06:42:47;;;;;;;4.20;2.30;;;;;;;;;;105142;1266;61701;-66
2023/03/13 06:45:16;;;;;;;4.10;2.50;;;;;;;;;;104801;1249;62043;-65
2023/03/13 06:47:45;;;;;;;2.70;2.30;;;;;;;;;;105024;1250;61701;-68
2023/03/13 06:50:13;;;;;;;4.80;2.20;;;;;;;;;;104938;1250;61653;-63
2023/03/13 06:52:42;;;;;;;3.50;2.40;;;;;;;;;;105105;1253;61689;-62
2023/03/13 06:55:11;;;;;;;2.90;2.50;;;;;;;;;;105046;1249;61673;-66
2023/03/13 06:57:40;;;;;;;2.60;2.30;;;;;;;;;;105131;1253;61690;-65
2023/03/13 07:00:10;;;;;;;3.60;2.40;;;;;;;;;;104717;1249;61695;-65
2023/03/13 07:02:38;;;;;;;4.00;2.80;;;;;;;;;;105356;1253;61448;-65
2023/03/13 07:05:07;;;;;;;3.80;2.60;;;;;;;;;;105056;1266;61779;-61
2023/03/13 07:07:36;;;;;;;4.40;2.60;;;;;;;;;;104949;1253;61598;-63
2023/03/13 07:10:04;;;;;;;4.40;2.80;;;;;;;;;;104893;1263;61692;-62
2023/03/13 07:12:33;;;;;;;5.00;2.90;;;;;;;;;;104901;1264;61131;-62
2023/03/13 07:15:02;;;;;;;4.10;3.00;;;;;;;;;;105088;1254;62260;-63
2023/03/13 07:17:33;;;;;;;5.20;2.60;;;;;;;;;;104941;1249;61692;-63
2023/03/13 07:20:09;;;;;;;4.10;2.60;;;;;;;;;;104747;1255;61768;-64
2023/03/13 07:22:38;;;;;;;3.80;2.70;;;;;;;;;;104919;1254;61560;-62
2023/03/13 07:25:07;;;;;;;3.80;2.80;;;;;;;;;;105183;1251;61692;-66
2023/03/13 07:27:35;;;;;;;2.80;2.30;;;;;;;;;;104827;1257;61664;-63
2023/03/13 07:30:04;;;;;;;6.40;3.20;;;;;;;;;;104849;1266;61688;-62
2023/03/13 07:32:32;;;;;;;3.20;2.70;;;;;;;;;;104950;1249;61721;-70
2023/03/13 07:35:03;;;;;;;3.00;2.40;;;;;;;;;;105232;1254;61967;-65
2023/03/13 07:37:32;;;;;;;3.80;2.90;;;;;;;;;;104715;1254;61679;-65
2023/03/13 07:40:01;;;;;;;3.80;2.50;;;;;;;;;;104986;1250;61638;-64
2023/03/13 07:42:29;;;;;;;4.10;2.60;;;;;;;;;;104708;1251;61701;-65
2023/03/13 07:44:58;;;;;;;5.90;2.80;;;;;;;;;;104828;1253;62300;-64
2023/03/13 07:47:26;;;;;;;4.60;2.90;;;;;;;;;;106870;1249;61608;-62
2023/03/13 07:49:54;;;;;;;4.70;2.70;;;;;;;;;;108832;1249;59569;-66
2023/03/13 07:52:25;;;;;;;6.50;2.80;;;;;;;;;;105055;1251;61702;-67
2023/03/13 07:54:55;;;;;;;4.30;2.60;;;;;;;;;;105629;1253;61578;-66
2023/03/13 07:57:23;;;;;;;2.40;2.20;;;;;;;;;;105343;1249;61715;-66
2023/03/13 07:59:52;;;;;;;4.10;3.00;;;;;;;;;;105502;1254;61582;-68
2023/03/13 08:02:20;;;;;;;5.30;2.60;;;;;;;;;;105365;1253;62040;-67
2023/03/13 08:04:52;;;;;;;3.50;2.40;;;;;;;;;;105001;1250;61749;-69
2023/03/13 08:07:22;;;;;;;3.50;2.30;;;;;;;;;;104843;1267;61698;-69
2023/03/13 08:09:50;;;;;;;3.70;2.50;;;;;;;;;;105229;1253;61745;-68
2023/03/13 08:12:22;;;;;;;5.40;2.00;;;;;;;;;;105307;1250;61740;-70
2023/03/13 08:14:51;;;;;;;4.80;2.80;;;;;;;;;;104571;1254;61906;-67
2023/03/13 08:17:19;;;;;;;3.90;2.70;;;;;;;;;;104746;1251;61698;-68
2023/03/13 08:19:51;;;;;;;4.90;2.50;;;;;;;;;;104843;1260;61689;-67
2023/03/13 08:22:20;;;;;;;3.80;2.50;;;;;;;;;;105173;1259;61710;-67
2023/03/13 08:24:48;;;;;;;2.80;2.50;;;;;;;;;;104751;1255;61694;-67
2023/03/13 08:27:17;;;;;;;4.60;2.60;;;;;;;;;;104867;1251;61631;-69
2023/03/13 08:29:45;;;;;;;2.80;2.40;;;;;;;;;;104949;1262;61928;-69
2023/03/13 08:32:14;;;;;;;3.90;2.60;;;;;;;;;;104778;1252;61705;-68
2023/03/13 08:34:45;;;;;;;4.00;2.50;;;;;;;;;;105320;1253;61602;-68
2023/03/13 08:37:14;;;;;;;5.60;2.50;;;;;;;;;;105143;1250;61764;-67
2023/03/13 08:39:44;;;;;;;4.70;3.00;;;;;;;;;;105066;1254;61691;-67
2023/03/13 08:42:13;;;;;;;4.70;2.80;;;;;;;;;;105178;1251;61674;-68
2023/03/13 08:44:46;;;;;;;3.80;2.70;;;;;;;;;;104977;1254;61672;-67
2023/03/13 08:47:14;;;;;;;3.70;2.70;;;;;;;;;;105227;1254;61656;-67
2023/03/13 08:49:43;;;;;;;3.40;2.40;;;;;;;;;;105226;1254;61483;-65
2023/03/13 08:52:11;;;;;;;7.00;3.00;;;;;;;;;;105365;1253;61691;-66
2023/03/13 08:54:39;;;;;;;4.30;3.00;;;;;;;;;;105354;1265;61119;-68
2023/03/13 08:57:08;;;;;;;4.20;2.80;;;;;;;;;;105314;1248;61676;-65
2023/03/13 08:59:36;;;;;;;5.90;3.10;;;;;;;;;;105414;1253;61717;-66
2023/03/13 09:02:08;;;;;;;4.30;3.00;;;;;;;;;;105095;1256;61765;-64
2023/03/13 09:04:36;;;;;;;5.40;3.30;;;;;;;;;;105705;1253;61701;-65
2023/03/13 09:07:05;;;;;;;4.00;2.80;;;;;;;;;;105516;1264;61688;-66
2023/03/13 09:09:33;;;;;;;3.20;2.70;;;;;;;;;;105863;1250;61605;-65
2023/03/13 09:12:05;;;;;;;4.20;3.20;;;;;;;;;;105501;1247;61777;-64
2023/03/13 09:14:36;;;;;;;4.20;3.10;;;;;;;;;;105205;1248;61701;-65
2023/03/13 09:17:04;;;;;;;3.90;2.90;;;;;;;;;;105387;1247;61669;-62
2023/03/13 09:19:33;;;;;;;3.30;2.50;;;;;;;;;;105476;1250;61711;-64
2023/03/13 09:22:01;;;;;;;2.90;2.60;;;;;;;;;;105543;1250;61556;-65
2023/03/13 09:24:31;;;;;;;4.30;2.60;;;;;;;;;;105585;1250;61608;-65
2023/03/13 09:27:00;;;;;;;3.50;2.40;;;;;;;;;;105496;1253;61711;-63
2023/03/13 09:29:29;;;;;;;2.60;2.10;;;;;;;;;;105230;1253;61691;-62
2023/03/13 09:31:57;;;;;;;3.10;2.10;;;;;;;;;;105193;1247;61692;-62
2023/03/13 09:34:26;;;;;;;5.20;2.10;;;;;;;;;;105348;1253;62030;-62
2023/03/13 09:36:54;;;;;;;5.20;2.00;;;;;;;;;;105586;1253;61588;-63
2023/03/13 09:39:25;;;;;;;4.10;2.10;;;;;;;;;;105222;1253;61736;-62
2023/03/13 09:42:01;;;;;;;4.10;2.50;;;;;;;;;;105241;1253;61716;-61
2023/03/13 09:44:31;;;;;;;5.80;2.00;;;;;;;;;;105236;1248;61602;-63
2023/03/13 09:47:00;;;;;;;5.20;2.20;;;;;;;;;;105003;1263;61076;-63
2023/03/13 09:49:47;;;;;;;4.80;2.10;;;;;;;;;;105616;1255;61714;-63
2023/03/13 09:52:22;;;;;;;2.30;2.10;;;;;;;;;;105736;1253;61781;-62
2023/03/13 09:54:50;;;;;;;3.70;2.10;;;;;;;;;;105430;1251;61734;-62
2023/03/13 09:57:58;;;;;;;2.00;1.80;;;;;;;;;;105492;1248;61665;-60
2023/03/13 10:00:28;;;;;;;3.30;1.90;;;;;;;;;;104363;1256;61866;-61
2023/03/13 10:03:16;;;;;;;4.20;2.30;;;;;;;;;;105041;1252;61818;-60
2023/03/13 10:05:48;;;;;;;2.70;1.90;;;;;;;;;;105485;1252;61710;-61
2023/03/13 10:08:37;;;;;;;3.20;2.10;;;;;;;;;;105455;1257;61094;-61
2023/03/13 10:11:06;;;;;;;2.60;1.90;;;;;;;;;;109065;1247;59598;-61
2023/03/13 10:13:45;;;;;;;2.90;1.90;;;;;;;;;;107775;1248;61630;-67
2023/03/13 10:16:13;;;;;;;2.50;2.00;;;;;;;;;;106353;1250;61741;-62
2023/03/13 10:18:44;;;;;;;2.90;2.00;;;;;;;;;;105840;1248;61609;-61
2023/03/13 10:21:17;;;;;;;3.00;2.10;;;;;;;;;;105930;1252;61598;-60
2023/03/13 10:23:50;;;;;;;2.60;2.10;;;;;;;;;;105558;1253;62149;-61
2023/03/13 10:26:23;;;;;;;4.00;2.50;;;;;;;;;;105834;1247;61551;-60
2023/03/13 10:28:51;;;;;;;2.50;1.90;;;;;;;;;;105432;1253;61700;-60
2023/03/13 10:31:25;;;;;;;2.90;1.90;;;;;;;;;;105357;1251;61712;-61
2023/03/13 10:33:54;;;;;;;2.70;2.10;;;;;;;;;;105399;1257;61116;-60
2023/03/13 10:36:23;;;;;;;2.80;2.10;;;;;;;;;;105401;1248;61672;-60
2023/03/13 10:38:52;;;;;;;3.80;2.40;;;;;;;;;;105294;1249;61711;-60
2023/03/13 10:41:26;;;;;;;3.10;2.20;;;;;;;;;;105169;1253;61694;-61
2023/03/13 10:43:55;;;;;;;2.30;2.00;;;;;;;;;;105356;1258;61711;-63
2023/03/13 10:46:24;;;;;;;4.10;2.00;;;;;;;;;;105762;1247;61685;-61
2023/03/13 10:48:53;;;;;;;2.70;2.00;;;;;;;;;;108015;1249;61455;-61
2023/03/13 10:51:24;;;;;;;4.30;2.20;;;;;;;;;;109063;1247;60892;-61
2023/03/13 10:53:52;;;;;;;4.10;2.50;;;;;;;;;;105931;1248;62123;-61
2023/03/13 10:56:30;;;;;;;3.00;2.10;;;;;;;;;;106432;1247;61682;-62
2023/03/13 10:58:58;;;;;;;3.10;2.10;;;;;;;;;;105881;1247;61687;-60
2023/03/13 11:01:28;;;;;;;2.20;2.00;;;;;;;;;;105366;1251;61617;-60
2023/03/13 11:03:56;;;;;;;3.40;2.30;;;;;;;;;;105396;1264;61083;-62
2023/03/13 11:06:32;;;;;;;2.20;1.80;;;;;;;;;;105468;1252;61666;-60
2023/03/13 11:09:11;;;;;;;2.70;2.10;;;;;;;;;;105302;1257;61688;-61
2023/03/13 11:11:46;;;;;;;4.00;2.30;;;;;;;;;;105418;1253;61792;-62
2023/03/13 11:14:15;;;;;;;2.70;2.10;;;;;;;;;;105663;1248;61644;-61
2023/03/13 11:16:49;;;;;;;2.60;2.00;;;;;;;;;;105475;1252;61688;-61
2023/03/13 11:19:24;;;;;;;4.50;1.90;;;;;;;;;;105154;1253;61724;-62
2023/03/13 11:22:01;;;;;;;2.70;2.20;;;;;;;;;;105444;1252;61764;-61
2023/03/13 11:24:52;;;;;;;3.00;2.40;;;;;;;;;;105461;1248;61701;-61
2023/03/13 11:27:28;;;;;;;5.20;2.80;;;;;;;;;;105726;1251;62184;-61
2023/03/13 11:29:57;;;;;;;3.00;2.30;;;;;;;;;;105353;1248;61677;-61
2023/03/13 11:32:29;;;;;;;2.90;2.60;;;;;;;;;;105638;1247;61469;-61
2023/03/13 11:35:01;;;;;;;3.50;3.00;;;;;;;;;;105493;1253;61593;-61
2023/03/13 11:37:30;;;;;;;3.60;3.10;;;;;;;;;;105313;1253;61661;-61
2023/03/13 11:39:59;;;;;;;3.10;2.40;;;;;;;;;;105008;1251;62075;-61
2023/03/13 11:42:37;;;;;;;2.40;2.10;;;;;;;;;;105761;1250;61710;-61
2023/03/13 11:45:27;;;;;;;7.50;2.30;;;;;;;;;;105741;1247;61642;-61
2023/03/13 11:47:55;;;;;;;;;;;;;;;;;;105667;1253;61979;-59
2023/03/13 11:50:44;;;;;;;4.70;2.30;;;;;;;;;;105527;1248;61732;-59
2023/03/13 11:53:16;;;;;;;3.10;2.40;;;;;;;;;;104810;1255;61580;-60
2023/03/13 11:55:44;;;;;;;2.70;2.00;;;;;;;;;;105182;1253;61617;-60
2023/03/13 11:58:19;;;;;;;3.50;1.90;;;;;;;;;;105165;1250;61705;-61
2023/03/13 12:00:57;;;;;;;3.10;2.20;;;;;;;;;;105523;1252;61102;-62
2023/03/13 12:03:44;;;;;;;2.30;2.10;;;;;;;;;;105097;1251;61618;-61
2023/03/13 12:08:49;;;;;;;2.80;2.30;;;;;;;;;;102049;1285;600753;-60
2023/03/13 12:11:24;;;;;;;2.90;2.00;;;;;;;;;;104639;1260;60252;-62
2023/03/13 12:13:52;;;;;;;2.80;1.80;;;;;;;;;;107640;1260;58370;-61
2023/03/13 12:16:25;;;;;;;2.70;1.90;;;;;;;;;;106736;1260;60279;-64
2023/03/13 12:18:53;;;;;;;2.30;1.70;;;;;;;;;;104641;1260;60975;-65
2023/03/13 12:21:25;;;;;;;2.50;2.00;;;;;;;;;;104314;1257;221823;-65
2023/03/13 12:24:00;;;;;;;1.90;1.80;;;;;;;;;;105259;1256;60268;-64
2023/03/13 12:26:35;;;;;;;2.50;2.30;;;;;;;;;;104827;1259;60277;-66
2023/03/13 12:29:06;;;;;;;3.20;2.20;;;;;;;;;;104741;1257;60151;-68
2023/03/13 12:31:45;;;;;;;3.40;2.30;;;;;;;;;;104500;1257;60247;-63
2023/03/13 12:34:16;;;;;;;5.70;1.90;;;;;;;;;;104594;1256;60891;-62
2023/03/13 12:36:50;;;;;;;2.60;2.00;;;;;;;;;;104646;1272;60865;-63
2023/03/13 12:39:18;;;;;;;2.60;1.90;;;;;;;;;;105592;1248;60754;-63
2023/03/13 12:41:56;;;;;;;3.10;2.20;;;;;;;;;;105660;1247;60873;-64
2023/03/13 12:44:24;;;;;;;3.30;1.70;;;;;;;;;;105466;1251;60858;-65
2023/03/13 12:46:56;;;;;;;2.10;1.90;;;;;;;;;;105431;1259;60946;-63
2023/03/13 12:49:43;;;;;;;3.70;2.00;;;;;;;;;;105755;1247;60930;-64
2023/03/13 12:52:25;;;;;;;1.80;1.70;;;;;;;;;;105651;1247;60768;-65
2023/03/13 12:55:06;;;;;;;2.40;1.60;;;;;;;;;;105697;1250;61295;-66
2023/03/13 12:57:53;;;;;;;2.80;1.70;;;;;;;;;;105589;1247;60853;-65
2023/03/13 13:00:22;;;;;;;2.10;1.80;;;;;;;;;;105314;1269;61243;-65
2023/03/13 13:03:08;;;;;;;3.30;1.90;;;;;;;;;;105470;1251;60852;-66
2023/03/13 13:05:36;;;;;;;3.10;1.80;;;;;;;;;;105747;1253;60710;-67
2023/03/13 13:08:04;;;;;;;5.30;2.10;;;;;;;;;;105558;1247;60858;-65
2023/03/13 13:10:33;;;;;;;2.30;2.00;;;;;;;;;;105793;1251;60722;-62
2023/03/13 13:13:13;;;;;;;2.00;1.70;;;;;;;;;;105765;1251;60970;-64
2023/03/13 13:15:58;;;;;;;2.40;2.20;;;;;;;;;;105915;1256;60892;-67
2023/03/13 13:18:27;;;;;;;2.10;1.80;;;;;;;;;;105841;1259;61344;-64
2023/03/13 13:21:01;;;;;;;2.00;1.80;;;;;;;;;;105609;1248;60791;-63
2023/03/13 13:23:40;;;;;;;2.60;1.90;;;;;;;;;;105418;1251;60859;-66
2023/03/13 13:26:32;;;;;;;3.30;2.10;;;;;;;;;;105410;1248;60885;-66
2023/03/13 13:29:11;;;;;;;2.40;1.90;;;;;;;;;;105783;1246;61242;-64
2023/03/13 13:31:49;;;;;;;4.60;1.80;;;;;;;;;;105565;1250;61235;-64
2023/03/13 13:34:27;;;;;;;2.20;1.70;;;;;;;;;;105844;1247;60758;-66
2023/03/13 13:36:56;;;;;;;3.70;2.00;;;;;;;;;;105816;1251;61193;-63
2023/03/13 13:39:27;;;;;;;3.60;1.70;;;;;;;;;;105501;1248;60855;-64
2023/03/13 13:41:55;;;;;;;4.50;2.30;;;;;;;;;;105666;1256;60872;-65
2023/03/13 13:44:25;;;;;;;2.70;1.80;;;;;;;;;;105612;1253;60853;-65
2023/03/13 13:46:54;;;;;;;3.10;1.90;;;;;;;;;;105548;1253;60754;-65
2023/03/13 13:49:24;;;;;;;2.80;2.10;;;;;;;;;;106470;1246;60770;-65
2023/03/13 13:52:02;;;;;;;4.10;2.30;;;;;;;;;;108960;1247;59427;-68
2023/03/13 13:54:32;;;;;;;2.20;2.00;;;;;;;;;;106905;1247;64421;-66
2023/03/13 13:57:26;;;;;;;2.30;1.90;;;;;;;;;;106025;1250;60866;-65
2023/03/13 14:00:12;;;;;;;4.20;2.40;;;;;;;;;;105509;1251;60774;-66
2023/03/13 14:02:59;;;;;;;5.90;3.60;;;;;;;;;;106523;1246;60868;-66
2023/03/13 14:05:29;;;;;;;3.50;2.50;;;;;;;;;;106024;1249;60867;-65
2023/03/13 14:08:07;;;;;;;2.80;2.30;;;;;;;;;;105670;1249;60875;-65
2023/03/13 14:10:35;;;;;;;;;;;;;;;;;;105670;1247;60844;-66
2023/03/13 14:13:10;;;;;;;4.50;2.70;;;;;;;;;;105653;1262;60867;-67
2023/03/13 14:15:45;;;;;;;2.70;2.10;;;;;;;;;;107593;1246;60764;-67
2023/03/13 14:18:24;;;;;;;2.90;2.20;;;;;;;;;;109086;1247;60101;-66
2023/03/13 14:20:56;;;;;;;3.70;2.20;;;;;;;;;;109111;1246;58890;-66
2023/03/13 14:23:38;;;;;;;3.40;2.00;;;;;;;;;;109079;1246;58878;-66
2023/03/13 14:26:10;;;;;;;3.40;2.20;;;;;;;;;;107382;1247;60825;-66
2023/03/13 14:28:42;;;;;;;3.20;2.50;;;;;;;;;;105619;1251;60767;-66
2023/03/13 14:31:20;;;;;;;2.90;2.30;;;;;;;;;;105618;1247;60899;-66
2023/03/13 14:33:48;;;;;;;3.60;2.60;;;;;;;;;;105584;1248;60831;-66
2023/03/13 14:36:16;;;;;;;5.30;2.40;;;;;;;;;;105478;1249;60873;-66
2023/03/13 14:38:54;;;;;;;3.00;2.60;;;;;;;;;;105643;1250;60856;-68
2023/03/13 14:41:36;;;;;;;2.40;2.10;;;;;;;;;;105453;1249;60859;-66
2023/03/13 14:44:24;;;;;;;2.70;2.10;;;;;;;;;;105720;1249;61186;-67
2023/03/13 14:46:57;;;;;;;2.20;2.00;;;;;;;;;;105497;1249;60853;-67
2023/03/13 14:49:28;;;;;;;3.60;2.10;;;;;;;;;;105374;1254;60738;-65
2023/03/13 14:52:03;;;;;;;2.80;2.20;;;;;;;;;;105281;1252;60863;-63
2023/03/13 14:54:33;;;;;;;3.90;2.60;;;;;;;;;;105440;1250;60748;-65
2023/03/13 14:57:05;;;;;;;3.40;2.30;;;;;;;;;;105495;1257;60853;-68
2023/03/13 14:59:33;;;;;;;4.10;2.50;;;;;;;;;;105813;1250;60875;-67
2023/03/13 15:02:11;;;;;;;2.30;1.80;;;;;;;;;;105635;1250;60872;-67
2023/03/13 15:04:49;;;;;;;2.50;2.00;;;;;;;;;;105593;1263;60773;-67
2023/03/13 15:07:18;;;;;;;3.60;2.50;;;;;;;;;;105392;1258;60731;-66
2023/03/13 15:09:46;;;;;;;2.20;2.00;;;;;;;;;;105448;1247;60987;-64